createdAt,value
2017-06-28T00:00:02.617Z,0
2017-06-28T00:00:40.787Z,0
2017-06-28T00:01:18.848Z,0
2017-06-28T00:01:56.519Z,0
2017-06-28T00:02:34.390Z,0
2017-06-28T00:03:12.255Z,0
2017-06-28T00:03:50.113Z,0
2017-06-28T00:04:27.776Z,0
2017-06-28T00:05:05.735Z,0
2017-06-28T00:05:43.602Z,0
2017-06-28T00:06:22.957Z,0
2017-06-28T00:07:00.616Z,0
2017-06-28T00:07:38.390Z,0
2017-06-28T00:08:16.052Z,0
2017-06-28T00:08:54.102Z,0
2017-06-28T00:09:32.069Z,0
2017-06-28T00:10:09.733Z,0
2017-06-28T00:10:47.293Z,0
2017-06-28T00:11:25.261Z,0
2017-06-28T00:12:03.121Z,0
2017-06-28T00:12:41.084Z,0
2017-06-28T00:13:18.746Z,0
2017-06-28T00:13:56.804Z,0
2017-06-28T00:14:34.868Z,0
2017-06-28T00:15:12.627Z,0
2017-06-28T00:15:50.731Z,0
2017-06-28T00:16:28.808Z,0
2017-06-28T00:17:06.371Z,0
2017-06-28T00:17:44.431Z,0
2017-06-28T00:18:22.394Z,0
2017-06-28T00:19:00.355Z,0
2017-06-28T00:19:38.314Z,0
2017-06-28T00:20:16.166Z,0
2017-06-28T00:20:53.937Z,0
2017-06-28T00:21:31.595Z,0
2017-06-28T00:22:09.554Z,0
2017-06-28T00:22:47.430Z,0
2017-06-28T00:23:25.401Z,0
2017-06-28T00:24:03.560Z,0
2017-06-28T00:24:41.619Z,0
2017-06-28T00:25:19.481Z,0
2017-06-28T00:25:57.370Z,0
2017-06-28T00:26:35.417Z,0
2017-06-28T00:27:13.186Z,0
2017-06-28T00:27:50.849Z,0
2017-06-28T00:28:28.607Z,0
2017-06-28T00:29:06.775Z,0
2017-06-28T00:29:44.635Z,0
2017-06-28T00:30:22.401Z,0
2017-06-28T00:31:00.064Z,0
2017-06-28T00:31:37.941Z,0
2017-06-28T00:32:15.717Z,0
2017-06-28T00:32:53.481Z,0
2017-06-28T00:33:31.449Z,0
2017-06-28T00:34:09.514Z,0
2017-06-28T00:34:47.472Z,0
2017-06-28T00:35:25.432Z,0
2017-06-28T00:36:03.295Z,0
2017-06-28T00:36:41.267Z,0
2017-06-28T00:37:19.124Z,0
2017-06-28T00:37:57.186Z,0
2017-06-28T00:38:35.051Z,0
2017-06-28T00:39:12.612Z,0
2017-06-28T00:39:50.476Z,0
2017-06-28T00:40:28.140Z,0
2017-06-28T00:41:06.019Z,0
2017-06-28T00:41:44.263Z,0
2017-06-28T00:42:22.031Z,0
2017-06-28T00:43:00.018Z,0
2017-06-28T00:43:37.783Z,0
2017-06-28T00:44:15.650Z,0
2017-06-28T00:44:53.308Z,0
2017-06-28T00:45:31.070Z,0
2017-06-28T00:46:08.945Z,0
2017-06-28T00:46:46.813Z,0
2017-06-28T00:47:25.008Z,0
2017-06-28T00:48:02.866Z,0
2017-06-28T00:48:40.536Z,0
2017-06-28T00:49:18.301Z,0
2017-06-28T00:49:56.075Z,0
2017-06-28T00:50:33.933Z,0
2017-06-28T00:51:11.496Z,0
2017-06-28T00:51:49.555Z,0
2017-06-28T00:52:27.417Z,0
2017-06-28T00:53:05.572Z,0
2017-06-28T00:53:43.440Z,0
2017-06-28T00:54:21.194Z,0
2017-06-28T00:54:59.164Z,0
2017-06-28T00:55:37.124Z,0
2017-06-28T00:56:14.688Z,0
2017-06-28T00:56:52.650Z,0
2017-06-28T00:57:30.110Z,0
2017-06-28T00:58:07.985Z,0
2017-06-28T00:58:46.042Z,0
2017-06-28T00:59:24.232Z,0
2017-06-28T01:00:02.701Z,0
2017-06-28T01:00:40.768Z,0
2017-06-28T01:01:18.633Z,0
2017-06-28T01:01:56.199Z,0
2017-06-28T01:02:34.260Z,0
2017-06-28T01:03:12.327Z,0
2017-06-28T01:03:50.285Z,0
2017-06-28T01:04:27.952Z,0
2017-06-28T01:05:05.815Z,0
2017-06-28T01:05:43.970Z,0
2017-06-28T01:06:23.574Z,0
2017-06-28T01:07:01.741Z,0
2017-06-28T01:07:39.505Z,0
2017-06-28T01:08:17.368Z,0
2017-06-28T01:08:54.929Z,0
2017-06-28T01:09:32.697Z,0
2017-06-28T01:10:10.761Z,0
2017-06-28T01:10:48.824Z,0
2017-06-28T01:11:26.891Z,0
2017-06-28T01:12:04.946Z,0
2017-06-28T01:12:42.806Z,0
2017-06-28T01:13:20.669Z,0
2017-06-28T01:13:58.323Z,0
2017-06-28T01:14:36.191Z,0
2017-06-28T01:15:13.954Z,0
2017-06-28T01:15:51.824Z,0
2017-06-28T01:16:29.687Z,0
2017-06-28T01:17:07.854Z,0
2017-06-28T01:17:45.813Z,0
2017-06-28T01:18:23.582Z,0
2017-06-28T01:19:01.448Z,0
2017-06-28T01:19:39.400Z,0
2017-06-28T01:20:17.667Z,0
2017-06-28T01:20:55.631Z,0
2017-06-28T01:21:33.484Z,0
2017-06-28T01:22:11.248Z,0
2017-06-28T01:22:49.127Z,0
2017-06-28T01:23:27.192Z,0
2017-06-28T01:24:04.952Z,0
2017-06-28T01:24:42.717Z,0
2017-06-28T01:25:20.781Z,0
2017-06-28T01:25:58.738Z,0
2017-06-28T01:26:36.798Z,0
2017-06-28T01:27:14.770Z,0
2017-06-28T01:27:55.349Z,0
2017-06-28T01:28:33.210Z,0
2017-06-28T01:29:10.975Z,0
2017-06-28T01:29:48.940Z,0
2017-06-28T01:30:26.897Z,0
2017-06-28T01:31:04.751Z,0
2017-06-28T01:31:43.212Z,0
2017-06-28T01:32:21.176Z,0
2017-06-28T01:32:59.028Z,0
2017-06-28T01:33:37.818Z,0
2017-06-28T01:34:15.410Z,0
2017-06-28T01:34:53.664Z,0
2017-06-28T01:35:31.928Z,0
2017-06-28T01:36:09.589Z,0
2017-06-28T01:36:47.664Z,0
2017-06-28T01:37:25.418Z,0
2017-06-28T01:38:03.375Z,0
2017-06-28T01:38:41.332Z,0
2017-06-28T01:39:19.600Z,0
2017-06-28T01:39:57.466Z,0
2017-06-28T01:40:35.342Z,0
2017-06-28T01:41:13.208Z,0
2017-06-28T01:41:51.172Z,0
2017-06-28T01:42:29.441Z,0
2017-06-28T01:43:07.318Z,0
2017-06-28T01:43:48.172Z,0
2017-06-28T01:44:25.930Z,0
2017-06-28T01:45:04.004Z,0
2017-06-28T01:45:41.872Z,0
2017-06-28T01:46:19.533Z,0
2017-06-28T01:46:57.498Z,0
2017-06-28T01:47:35.461Z,0
2017-06-28T01:48:13.519Z,0
2017-06-28T01:48:51.590Z,0
2017-06-28T01:49:29.456Z,0
2017-06-28T01:50:07.229Z,0
2017-06-28T01:50:45.506Z,0
2017-06-28T01:51:23.669Z,0
2017-06-28T01:52:01.732Z,0
2017-06-28T01:52:39.488Z,0
2017-06-28T01:53:17.357Z,0
2017-06-28T01:53:55.015Z,0
2017-06-28T01:54:32.684Z,0
2017-06-28T01:55:10.756Z,0
2017-06-28T01:55:48.619Z,0
2017-06-28T01:56:26.589Z,0
2017-06-28T01:57:04.393Z,0
2017-06-28T01:57:42.253Z,0
2017-06-28T01:58:20.228Z,0
2017-06-28T01:58:58.089Z,0
2017-06-28T01:59:36.153Z,0
2017-06-28T02:00:13.913Z,0
2017-06-28T02:00:51.780Z,0
2017-06-28T02:01:29.563Z,0
2017-06-28T02:02:07.126Z,0
2017-06-28T02:02:45.084Z,0
2017-06-28T02:03:23.154Z,0
2017-06-28T02:04:00.809Z,0
2017-06-28T02:04:38.570Z,0
2017-06-28T02:05:16.234Z,0
2017-06-28T02:05:54.193Z,0
2017-06-28T02:06:32.070Z,0
2017-06-28T02:07:10.039Z,0
2017-06-28T02:07:47.700Z,0
2017-06-28T02:08:25.259Z,0
2017-06-28T02:09:03.019Z,0
2017-06-28T02:09:40.783Z,0
2017-06-28T02:10:18.555Z,0
2017-06-28T02:10:56.519Z,0
2017-06-28T02:11:34.792Z,0
2017-06-28T02:12:12.757Z,0
2017-06-28T02:12:50.828Z,0
2017-06-28T02:13:28.585Z,0
2017-06-28T02:14:06.153Z,0
2017-06-28T02:14:44.214Z,0
2017-06-28T02:15:22.276Z,0
2017-06-28T02:16:00.150Z,0
2017-06-28T02:16:38.117Z,0
2017-06-28T02:17:16.078Z,0
2017-06-28T02:17:53.943Z,0
2017-06-28T02:18:31.805Z,0
2017-06-28T02:19:09.565Z,0
2017-06-28T02:19:47.140Z,0
2017-06-28T02:20:25.209Z,0
2017-06-28T02:21:03.071Z,0
2017-06-28T02:21:40.632Z,0
2017-06-28T02:22:19.010Z,0
2017-06-28T02:22:56.584Z,0
2017-06-28T02:23:34.248Z,0
2017-06-28T02:24:12.018Z,0
2017-06-28T02:24:49.879Z,0
2017-06-28T02:25:28.146Z,0
2017-06-28T02:26:06.106Z,0
2017-06-28T02:26:43.983Z,0
2017-06-28T02:27:21.710Z,0
2017-06-28T02:27:59.569Z,0
2017-06-28T02:28:37.638Z,0
2017-06-28T02:29:15.404Z,0
2017-06-28T02:29:53.172Z,0
2017-06-28T02:30:30.932Z,0
2017-06-28T02:31:08.692Z,0
2017-06-28T02:31:46.458Z,0
2017-06-28T02:32:24.414Z,0
2017-06-28T02:33:02.182Z,0
2017-06-28T02:33:40.247Z,0
2017-06-28T02:34:18.101Z,0
2017-06-28T02:34:56.155Z,0
2017-06-28T02:35:34.225Z,0
2017-06-28T02:36:11.889Z,0
2017-06-28T02:36:49.752Z,0
2017-06-28T02:37:27.514Z,0
2017-06-28T02:38:05.581Z,0
2017-06-28T02:38:43.546Z,0
2017-06-28T02:39:21.401Z,0
2017-06-28T02:39:59.464Z,0
2017-06-28T02:40:37.241Z,0
2017-06-28T02:41:14.992Z,0
2017-06-28T02:41:52.765Z,0
2017-06-28T02:42:30.627Z,0
2017-06-28T02:43:08.697Z,0
2017-06-28T02:43:46.661Z,0
2017-06-28T02:44:24.519Z,0
2017-06-28T02:45:02.188Z,0
2017-06-28T02:45:39.855Z,0
2017-06-28T02:46:18.323Z,0
2017-06-28T02:46:55.985Z,0
2017-06-28T02:47:34.143Z,0
2017-06-28T02:48:12.107Z,0
2017-06-28T02:48:50.672Z,0
2017-06-28T02:49:28.340Z,0
2017-06-28T02:50:06.516Z,0
2017-06-28T02:50:44.400Z,0
2017-06-28T02:51:22.270Z,0
2017-06-28T02:51:59.835Z,0
2017-06-28T02:52:37.697Z,0
2017-06-28T02:53:15.664Z,0
2017-06-28T02:53:53.333Z,0
2017-06-28T02:54:31.191Z,0
2017-06-28T02:55:08.864Z,0
2017-06-28T02:55:46.932Z,0
2017-06-28T02:56:27.290Z,0
2017-06-28T02:57:05.361Z,0
2017-06-28T02:57:43.025Z,0
2017-06-28T02:58:21.195Z,0
2017-06-28T02:58:58.971Z,0
2017-06-28T02:59:36.837Z,0
2017-06-28T03:00:14.902Z,0
2017-06-28T03:00:52.666Z,0
2017-06-28T03:01:30.329Z,0
2017-06-28T03:02:08.704Z,0
2017-06-28T03:02:46.572Z,0
2017-06-28T03:03:24.427Z,0
2017-06-28T03:04:02.388Z,0
2017-06-28T03:04:40.154Z,0
2017-06-28T03:05:17.719Z,0
2017-06-28T03:05:55.476Z,0
2017-06-28T03:06:33.748Z,0
2017-06-28T03:07:11.426Z,0
2017-06-28T03:07:48.980Z,0
2017-06-28T03:08:26.743Z,0
2017-06-28T03:09:04.511Z,0
2017-06-28T03:09:42.477Z,0
2017-06-28T03:10:20.338Z,0
2017-06-28T03:10:57.899Z,0
2017-06-28T03:11:35.965Z,0
2017-06-28T03:12:13.823Z,0
2017-06-28T03:12:51.681Z,0
2017-06-28T03:13:29.551Z,0
2017-06-28T03:14:07.510Z,0
2017-06-28T03:14:45.383Z,0
2017-06-28T03:15:23.343Z,0
2017-06-28T03:16:01.611Z,0
2017-06-28T03:16:39.492Z,0
2017-06-28T03:17:17.763Z,0
2017-06-28T03:17:55.735Z,0
2017-06-28T03:18:33.494Z,0
2017-06-28T03:19:11.661Z,0
2017-06-28T03:19:49.529Z,0
2017-06-28T03:20:27.592Z,0
2017-06-28T03:21:05.561Z,5
2017-06-28T03:21:43.519Z,5
2017-06-28T03:22:21.486Z,5
2017-06-28T03:22:59.763Z,5
2017-06-28T03:23:37.727Z,5
2017-06-28T03:24:15.404Z,5
2017-06-28T03:24:53.272Z,5
2017-06-28T03:25:31.237Z,5
2017-06-28T03:26:09.407Z,5
2017-06-28T03:26:47.267Z,5
2017-06-28T03:27:25.335Z,5
2017-06-28T03:28:02.996Z,5
2017-06-28T03:28:40.662Z,5
2017-06-28T03:29:18.331Z,5
2017-06-28T03:29:56.292Z,5
2017-06-28T03:30:34.064Z,10
2017-06-28T03:31:11.942Z,10
2017-06-28T03:31:49.905Z,10
2017-06-28T03:32:27.769Z,10
2017-06-28T03:33:06.029Z,10
2017-06-28T03:33:43.897Z,10
2017-06-28T03:34:21.862Z,10
2017-06-28T03:35:00.229Z,10
2017-06-28T03:35:38.206Z,10
2017-06-28T03:36:15.976Z,10
2017-06-28T03:36:53.850Z,10
2017-06-28T03:37:31.826Z,10
2017-06-28T03:38:09.707Z,10
2017-06-28T03:38:47.488Z,10
2017-06-28T03:39:25.351Z,10
2017-06-28T03:40:03.028Z,10
2017-06-28T03:40:40.689Z,10
2017-06-28T03:41:18.556Z,10
2017-06-28T03:41:56.730Z,10
2017-06-28T03:42:34.701Z,10
2017-06-28T03:43:12.852Z,10
2017-06-28T03:43:51.030Z,10
2017-06-28T03:44:28.804Z,10
2017-06-28T03:45:06.665Z,10
2017-06-28T03:45:44.729Z,10
2017-06-28T03:46:24.497Z,10
2017-06-28T03:47:02.167Z,10
2017-06-28T03:47:39.729Z,5
2017-06-28T03:48:17.398Z,5
2017-06-28T03:48:55.264Z,5
2017-06-28T03:49:33.255Z,5
2017-06-28T03:50:10.941Z,5
2017-06-28T03:50:48.803Z,5
2017-06-28T03:51:26.970Z,5
2017-06-28T03:52:04.938Z,5
2017-06-28T03:52:43.204Z,5
2017-06-28T03:53:21.168Z,5
2017-06-28T03:53:58.749Z,5
2017-06-28T03:54:36.515Z,5
2017-06-28T03:55:14.674Z,5
2017-06-28T03:55:52.544Z,10
2017-06-28T03:56:30.504Z,10
2017-06-28T03:57:08.068Z,15
2017-06-28T03:57:45.931Z,15
2017-06-28T03:58:24.100Z,15
2017-06-28T03:59:01.966Z,15
2017-06-28T03:59:39.729Z,10
2017-06-28T04:00:17.405Z,10
2017-06-28T04:00:55.365Z,10
2017-06-28T04:01:33.324Z,5
2017-06-28T04:02:11.292Z,5
2017-06-28T04:02:49.057Z,5
2017-06-28T04:03:26.821Z,5
2017-06-28T04:04:04.910Z,5
2017-06-28T04:04:42.577Z,5
2017-06-28T04:05:20.449Z,5
2017-06-28T04:05:58.222Z,5
2017-06-28T04:06:35.789Z,5
2017-06-28T04:07:14.155Z,5
2017-06-28T04:07:52.020Z,10
2017-06-28T04:08:29.890Z,10
2017-06-28T04:09:07.867Z,10
2017-06-28T04:09:46.037Z,10
2017-06-28T04:10:23.801Z,10
2017-06-28T04:11:01.879Z,10
2017-06-28T04:11:39.744Z,10
2017-06-28T04:12:17.609Z,15
2017-06-28T04:12:55.371Z,15
2017-06-28T04:13:33.135Z,15
2017-06-28T04:14:10.998Z,15
2017-06-28T04:14:48.660Z,15
2017-06-28T04:15:26.632Z,15
2017-06-28T04:16:04.497Z,15
2017-06-28T04:16:42.073Z,15
2017-06-28T04:17:20.044Z,10
2017-06-28T04:17:57.917Z,10
2017-06-28T04:18:35.579Z,10
2017-06-28T04:19:13.446Z,15
2017-06-28T04:19:51.409Z,15
2017-06-28T04:20:28.982Z,15
2017-06-28T04:21:06.856Z,20
2017-06-28T04:21:44.725Z,25
2017-06-28T04:22:22.894Z,25
2017-06-28T04:23:00.863Z,30
2017-06-28T04:23:39.034Z,35
2017-06-28T04:24:16.861Z,40
2017-06-28T04:24:54.429Z,50
2017-06-28T04:25:32.504Z,55
2017-06-28T04:26:10.275Z,60
2017-06-28T04:26:47.855Z,65
2017-06-28T04:27:25.721Z,70
2017-06-28T04:28:03.785Z,70
2017-06-28T04:28:41.360Z,70
2017-06-28T04:29:19.124Z,75
2017-06-28T04:29:56.789Z,70
2017-06-28T04:30:34.762Z,70
2017-06-28T04:31:12.537Z,65
2017-06-28T04:31:50.349Z,65
2017-06-28T04:32:28.619Z,65
2017-06-28T04:33:06.513Z,60
2017-06-28T04:33:44.486Z,60
2017-06-28T04:34:22.446Z,60
2017-06-28T04:35:00.459Z,55
2017-06-28T04:35:38.630Z,55
2017-06-28T04:36:16.691Z,55
2017-06-28T04:36:54.558Z,55
2017-06-28T04:37:32.432Z,60
2017-06-28T04:38:10.194Z,60
2017-06-28T04:38:47.953Z,65
2017-06-28T04:39:26.023Z,65
2017-06-28T04:40:04.106Z,65
2017-06-28T04:40:42.158Z,65
2017-06-28T04:41:19.929Z,65
2017-06-28T04:41:57.900Z,65
2017-06-28T04:42:35.978Z,60
2017-06-28T04:43:14.242Z,55
2017-06-28T04:43:52.106Z,55
2017-06-28T04:44:29.888Z,50
2017-06-28T04:45:07.736Z,50
2017-06-28T04:45:45.604Z,50
2017-06-28T04:46:24.034Z,50
2017-06-28T04:47:02.103Z,50
2017-06-28T04:47:39.772Z,50
2017-06-28T04:48:17.541Z,55
2017-06-28T04:48:55.510Z,60
2017-06-28T04:49:33.276Z,60
2017-06-28T04:50:11.052Z,65
2017-06-28T04:50:48.925Z,70
2017-06-28T04:51:26.910Z,70
2017-06-28T04:52:04.980Z,70
2017-06-28T04:52:42.853Z,75
2017-06-28T04:53:20.836Z,75
2017-06-28T04:53:58.506Z,70
2017-06-28T04:54:36.568Z,65
2017-06-28T04:55:14.575Z,60
2017-06-28T04:55:52.657Z,60
2017-06-28T04:56:31.186Z,60
2017-06-28T04:57:08.959Z,60
2017-06-28T04:57:46.630Z,65
2017-06-28T04:58:24.299Z,65
2017-06-28T04:59:02.163Z,70
2017-06-28T04:59:40.131Z,70
2017-06-28T05:00:18.104Z,75
2017-06-28T05:00:55.763Z,80
2017-06-28T05:01:33.538Z,80
2017-06-28T05:02:11.819Z,75
2017-06-28T05:02:49.590Z,75
2017-06-28T05:03:27.459Z,70
2017-06-28T05:04:05.140Z,70
2017-06-28T05:04:42.806Z,70
2017-06-28T05:05:20.671Z,70
2017-06-28T05:05:58.642Z,70
2017-06-28T05:06:36.212Z,65
2017-06-28T05:07:14.075Z,60
2017-06-28T05:07:51.653Z,60
2017-06-28T05:08:29.758Z,60
2017-06-28T05:09:07.828Z,55
2017-06-28T05:09:45.594Z,55
2017-06-28T05:10:23.060Z,55
2017-06-28T05:11:01.029Z,50
2017-06-28T05:11:38.697Z,50
2017-06-28T05:12:16.466Z,50
2017-06-28T05:12:54.742Z,45
2017-06-28T05:13:32.416Z,45
2017-06-28T05:14:10.180Z,45
2017-06-28T05:14:48.252Z,45
2017-06-28T05:15:26.323Z,40
2017-06-28T05:16:04.391Z,40
2017-06-28T05:16:42.158Z,35
2017-06-28T05:17:20.024Z,30
2017-06-28T05:17:58.195Z,25
2017-06-28T05:18:36.168Z,30
2017-06-28T05:19:13.733Z,30
2017-06-28T05:19:51.796Z,40
2017-06-28T05:20:29.968Z,45
2017-06-28T05:21:07.841Z,55
2017-06-28T05:21:45.417Z,55
2017-06-28T05:22:23.175Z,60
2017-06-28T05:23:00.936Z,55
2017-06-28T05:23:38.703Z,50
2017-06-28T05:24:16.883Z,45
2017-06-28T05:24:55.050Z,45
2017-06-28T05:25:33.117Z,45
2017-06-28T05:26:11.190Z,50
2017-06-28T05:26:49.059Z,60
2017-06-28T05:27:26.923Z,60
2017-06-28T05:28:04.692Z,60
2017-06-28T05:28:42.572Z,50
2017-06-28T05:29:20.434Z,40
2017-06-28T05:29:58.800Z,30
2017-06-28T05:30:36.467Z,20
2017-06-28T05:31:14.325Z,15
2017-06-28T05:31:52.196Z,15
2017-06-28T05:32:30.165Z,15
2017-06-28T05:33:07.838Z,15
2017-06-28T05:33:45.709Z,15
2017-06-28T05:34:23.368Z,20
2017-06-28T05:35:01.438Z,30
2017-06-28T05:35:39.103Z,40
2017-06-28T05:36:17.075Z,50
2017-06-28T05:36:54.954Z,55
2017-06-28T05:37:32.732Z,55
2017-06-28T05:38:10.591Z,60
2017-06-28T05:38:48.358Z,60
2017-06-28T05:39:26.531Z,60
2017-06-28T05:40:04.596Z,65
2017-06-28T05:40:42.668Z,70
2017-06-28T05:41:20.536Z,70
2017-06-28T05:41:58.703Z,75
2017-06-28T05:42:36.670Z,80
2017-06-28T05:43:14.529Z,80
2017-06-28T05:43:52.399Z,85
2017-06-28T05:44:29.862Z,85
2017-06-28T05:45:07.733Z,80
2017-06-28T05:45:45.512Z,80
2017-06-28T05:46:23.489Z,75
2017-06-28T05:47:01.558Z,75
2017-06-28T05:47:39.237Z,75
2017-06-28T05:48:17.195Z,70
2017-06-28T05:48:55.061Z,70
2017-06-28T05:49:33.643Z,60
2017-06-28T05:50:11.708Z,50
2017-06-28T05:50:49.692Z,45
2017-06-28T05:51:27.464Z,40
2017-06-28T05:52:05.217Z,35
2017-06-28T05:52:43.494Z,35
2017-06-28T05:53:21.175Z,35
2017-06-28T05:53:58.951Z,40
2017-06-28T05:54:36.818Z,40
2017-06-28T05:55:14.593Z,45
2017-06-28T05:55:52.452Z,45
2017-06-28T05:56:30.726Z,45
2017-06-28T05:57:08.427Z,45
2017-06-28T05:57:46.398Z,40
2017-06-28T05:58:24.270Z,40
2017-06-28T05:59:02.248Z,35
2017-06-28T05:59:40.515Z,35
2017-06-28T06:00:18.476Z,40
2017-06-28T06:00:56.250Z,40
2017-06-28T06:01:34.360Z,40
2017-06-28T06:02:12.482Z,45
2017-06-28T06:02:50.972Z,45
2017-06-28T06:03:28.677Z,50
2017-06-28T06:04:07.206Z,60
2017-06-28T06:04:44.991Z,70
2017-06-28T06:05:22.892Z,70
2017-06-28T06:06:00.669Z,80
2017-06-28T06:06:38.683Z,95
2017-06-28T06:07:17.057Z,115
2017-06-28T06:07:54.868Z,135
2017-06-28T06:08:32.970Z,145
2017-06-28T06:09:11.065Z,155
2017-06-28T06:09:49.308Z,165
2017-06-28T06:10:27.006Z,165
2017-06-28T06:11:04.492Z,165
2017-06-28T06:11:42.574Z,155
2017-06-28T06:12:20.378Z,155
2017-06-28T06:12:58.451Z,160
2017-06-28T06:13:36.633Z,180
2017-06-28T06:14:14.539Z,200
2017-06-28T06:14:52.516Z,200
2017-06-28T06:15:30.677Z,195
2017-06-28T06:16:08.850Z,205
2017-06-28T06:16:46.846Z,215
2017-06-28T06:17:24.942Z,240
2017-06-28T06:18:02.811Z,255
2017-06-28T06:18:40.809Z,265
2017-06-28T06:19:19.019Z,270
2017-06-28T06:19:56.884Z,270
2017-06-28T06:20:35.170Z,270
2017-06-28T06:21:13.150Z,270
2017-06-28T06:21:51.538Z,270
2017-06-28T06:22:29.398Z,270
2017-06-28T06:23:07.214Z,265
2017-06-28T06:23:45.127Z,260
2017-06-28T06:24:22.867Z,255
2017-06-28T06:25:00.754Z,255
2017-06-28T06:25:38.528Z,255
2017-06-28T06:26:16.842Z,250
2017-06-28T06:26:54.736Z,255
2017-06-28T06:27:32.407Z,245
2017-06-28T06:28:10.391Z,215
2017-06-28T06:28:48.391Z,195
2017-06-28T06:29:26.056Z,175
2017-06-28T06:30:04.249Z,150
2017-06-28T06:30:42.118Z,130
2017-06-28T06:31:20.192Z,115
2017-06-28T06:31:58.068Z,105
2017-06-28T06:32:36.068Z,125
2017-06-28T06:33:14.412Z,125
2017-06-28T06:33:52.184Z,135
2017-06-28T06:34:29.756Z,150
2017-06-28T06:35:07.456Z,180
2017-06-28T06:35:45.054Z,200
2017-06-28T06:36:25.309Z,250
2017-06-28T06:37:03.290Z,230
2017-06-28T06:37:40.865Z,215
2017-06-28T06:38:18.438Z,215
2017-06-28T06:38:56.622Z,235
2017-06-28T06:39:34.516Z,225
2017-06-28T06:40:12.090Z,225
2017-06-28T06:40:50.066Z,220
2017-06-28T06:41:28.351Z,225
2017-06-28T06:42:06.242Z,230
2017-06-28T06:42:44.343Z,235
2017-06-28T06:43:22.129Z,245
2017-06-28T06:44:00.126Z,260
2017-06-28T06:44:38.102Z,275
2017-06-28T06:45:16.217Z,280
2017-06-28T06:45:54.197Z,280
2017-06-28T06:46:32.584Z,285
2017-06-28T06:47:10.251Z,275
2017-06-28T06:47:48.323Z,270
2017-06-28T06:48:26.302Z,265
2017-06-28T06:49:03.856Z,255
2017-06-28T06:49:41.846Z,245
2017-06-28T06:50:19.848Z,230
2017-06-28T06:50:57.948Z,215
2017-06-28T06:51:35.810Z,210
2017-06-28T06:52:13.702Z,210
2017-06-28T06:52:51.800Z,215
2017-06-28T06:53:30.065Z,215
2017-06-28T06:54:08.031Z,215
2017-06-28T06:54:45.909Z,225
2017-06-28T06:55:23.983Z,225
2017-06-28T06:56:02.166Z,235
2017-06-28T06:56:40.345Z,235
2017-06-28T06:57:18.538Z,230
2017-06-28T06:57:56.526Z,225
2017-06-28T06:58:34.596Z,240
2017-06-28T06:59:12.608Z,250
2017-06-28T06:59:50.542Z,255
2017-06-28T07:00:28.413Z,255
2017-06-28T07:01:06.085Z,260
2017-06-28T07:01:44.163Z,265
2017-06-28T07:02:21.938Z,275
2017-06-28T07:03:00.157Z,285
2017-06-28T07:03:38.104Z,295
2017-06-28T07:04:16.212Z,305
2017-06-28T07:04:54.083Z,320
2017-06-28T07:05:31.754Z,330
2017-06-28T07:06:09.647Z,335
2017-06-28T07:06:47.411Z,340
2017-06-28T07:07:25.325Z,340
2017-06-28T07:08:03.493Z,345
2017-06-28T07:08:41.173Z,345
2017-06-28T07:09:18.879Z,335
2017-06-28T07:09:56.884Z,320
2017-06-28T07:10:34.743Z,305
2017-06-28T07:11:12.620Z,305
2017-06-28T07:11:50.624Z,300
2017-06-28T07:12:28.505Z,280
2017-06-28T07:13:06.571Z,250
2017-06-28T07:13:44.550Z,255
2017-06-28T07:14:22.539Z,245
2017-06-28T07:15:00.505Z,225
2017-06-28T07:15:38.369Z,215
2017-06-28T07:16:16.182Z,210
2017-06-28T07:16:53.664Z,215
2017-06-28T07:17:31.532Z,235
2017-06-28T07:18:09.608Z,275
2017-06-28T07:18:47.894Z,320
2017-06-28T07:19:25.968Z,335
2017-06-28T07:20:04.052Z,340
2017-06-28T07:20:42.021Z,360
2017-06-28T07:21:20.416Z,380
2017-06-28T07:21:58.582Z,395
2017-06-28T07:22:36.658Z,400
2017-06-28T07:23:14.325Z,400
2017-06-28T07:23:52.098Z,405
2017-06-28T07:24:30.174Z,405
2017-06-28T07:25:08.050Z,415
2017-06-28T07:25:46.233Z,430
2017-06-28T07:26:23.946Z,450
2017-06-28T07:27:01.632Z,435
2017-06-28T07:27:39.807Z,385
2017-06-28T07:28:17.394Z,335
2017-06-28T07:28:55.158Z,270
2017-06-28T07:29:33.246Z,220
2017-06-28T07:30:10.917Z,180
2017-06-28T07:30:48.592Z,165
2017-06-28T07:31:26.558Z,180
2017-06-28T07:32:04.328Z,220
2017-06-28T07:32:42.310Z,245
2017-06-28T07:33:20.300Z,235
2017-06-28T07:33:58.171Z,235
2017-06-28T07:34:35.767Z,245
2017-06-28T07:35:13.759Z,235
2017-06-28T07:35:51.733Z,220
2017-06-28T07:36:29.632Z,215
2017-06-28T07:37:07.506Z,205
2017-06-28T07:37:45.385Z,210
2017-06-28T07:38:23.181Z,225
2017-06-28T07:39:00.870Z,245
2017-06-28T07:39:39.274Z,280
2017-06-28T07:40:17.459Z,300
2017-06-28T07:40:55.544Z,305
2017-06-28T07:41:33.342Z,305
2017-06-28T07:42:11.036Z,290
2017-06-28T07:42:49.011Z,255
2017-06-28T07:43:27.086Z,210
2017-06-28T07:44:05.070Z,180
2017-06-28T07:44:43.146Z,170
2017-06-28T07:45:21.132Z,180
2017-06-28T07:45:59.238Z,190
2017-06-28T07:46:36.832Z,185
2017-06-28T07:47:14.603Z,190
2017-06-28T07:47:52.587Z,185
2017-06-28T07:48:30.764Z,190
2017-06-28T07:49:08.742Z,195
2017-06-28T07:49:46.815Z,190
2017-06-28T07:50:25.197Z,165
2017-06-28T07:51:03.274Z,150
2017-06-28T07:51:41.142Z,145
2017-06-28T07:52:18.918Z,140
2017-06-28T07:52:57.088Z,140
2017-06-28T07:53:34.996Z,150
2017-06-28T07:54:12.841Z,175
2017-06-28T07:54:51.032Z,190
2017-06-28T07:55:28.915Z,190
2017-06-28T07:56:06.902Z,180
2017-06-28T07:56:44.895Z,195
2017-06-28T07:57:22.673Z,225
2017-06-28T07:58:00.798Z,275
2017-06-28T07:58:38.889Z,325
2017-06-28T07:59:16.570Z,355
2017-06-28T07:59:54.644Z,370
2017-06-28T08:00:32.821Z,380
2017-06-28T08:01:10.903Z,380
2017-06-28T08:01:48.984Z,390
2017-06-28T08:02:26.663Z,410
2017-06-28T08:03:04.443Z,415
2017-06-28T08:03:42.241Z,425
2017-06-28T08:04:19.914Z,425
2017-06-28T08:04:57.999Z,415
2017-06-28T08:05:35.976Z,400
2017-06-28T08:06:13.855Z,365
2017-06-28T08:06:51.930Z,340
2017-06-28T08:07:30.008Z,315
2017-06-28T08:08:08.202Z,280
2017-06-28T08:08:46.371Z,260
2017-06-28T08:09:24.454Z,245
2017-06-28T08:10:02.441Z,230
2017-06-28T08:10:40.113Z,220
2017-06-28T08:11:18.097Z,205
2017-06-28T08:11:56.077Z,200
2017-06-28T08:12:33.955Z,195
2017-06-28T08:13:11.421Z,195
2017-06-28T08:13:49.204Z,205
2017-06-28T08:14:27.383Z,210
2017-06-28T08:15:05.653Z,220
2017-06-28T08:15:43.515Z,230
2017-06-28T08:16:21.391Z,240
2017-06-28T08:16:59.190Z,245
2017-06-28T08:17:37.163Z,240
2017-06-28T08:18:15.231Z,245
2017-06-28T08:18:53.308Z,245
2017-06-28T08:19:31.079Z,255
2017-06-28T08:20:08.946Z,270
2017-06-28T08:20:46.946Z,285
2017-06-28T08:21:24.618Z,300
2017-06-28T08:22:02.608Z,320
2017-06-28T08:22:40.192Z,325
2017-06-28T08:23:17.775Z,325
2017-06-28T08:23:55.651Z,285
2017-06-28T08:24:33.541Z,235
2017-06-28T08:25:11.419Z,215
2017-06-28T08:25:48.999Z,200
2017-06-28T08:26:26.987Z,190
2017-06-28T08:27:04.758Z,190
2017-06-28T08:27:42.635Z,185
2017-06-28T08:28:20.503Z,180
2017-06-28T08:28:58.268Z,180
2017-06-28T08:29:36.346Z,175
2017-06-28T08:30:14.339Z,170
2017-06-28T08:30:52.216Z,170
2017-06-28T08:31:30.095Z,160
2017-06-28T08:32:07.773Z,145
2017-06-28T08:32:45.738Z,145
2017-06-28T08:33:23.514Z,155
2017-06-28T08:34:01.692Z,165
2017-06-28T08:34:39.667Z,170
2017-06-28T08:35:18.038Z,175
2017-06-28T08:35:56.206Z,175
2017-06-28T08:36:33.997Z,170
2017-06-28T08:37:11.871Z,175
2017-06-28T08:37:50.144Z,180
2017-06-28T08:38:27.811Z,190
2017-06-28T08:39:05.786Z,195
2017-06-28T08:39:43.762Z,210
2017-06-28T08:40:21.830Z,220
2017-06-28T08:40:59.915Z,230
2017-06-28T08:41:37.930Z,240
2017-06-28T08:42:16.206Z,240
2017-06-28T08:42:54.275Z,230
2017-06-28T08:43:32.350Z,225
2017-06-28T08:44:09.736Z,225
2017-06-28T08:44:47.718Z,225
2017-06-28T08:45:25.599Z,210
2017-06-28T08:46:03.575Z,225
2017-06-28T08:46:41.663Z,230
2017-06-28T08:47:19.650Z,240
2017-06-28T08:47:57.754Z,255
2017-06-28T08:48:35.328Z,260
2017-06-28T08:49:13.303Z,270
2017-06-28T08:49:51.309Z,280
2017-06-28T08:50:29.394Z,295
2017-06-28T08:51:07.270Z,295
2017-06-28T08:51:45.646Z,290
2017-06-28T08:52:24.011Z,295
2017-06-28T08:53:02.185Z,305
2017-06-28T08:53:40.060Z,330
2017-06-28T08:54:18.046Z,340
2017-06-28T08:54:56.117Z,370
2017-06-28T08:55:33.990Z,375
2017-06-28T08:56:11.765Z,385
2017-06-28T08:56:49.439Z,400
2017-06-28T08:57:27.118Z,410
2017-06-28T08:58:04.997Z,490
2017-06-28T08:58:42.773Z,535
2017-06-28T08:59:20.752Z,490
2017-06-28T08:59:58.944Z,435
2017-06-28T09:00:36.921Z,420
2017-06-28T09:01:15.010Z,430
2017-06-28T09:01:52.905Z,425
2017-06-28T09:02:30.681Z,375